createdAt,value
2023-03-30T00:01:10.816Z,1493.00
2023-03-30T00:05:10.839Z,1487.00
2023-03-30T00:09:10.553Z,1487.00
2023-03-30T00:13:10.790Z,1477.00
2023-03-30T00:17:10.811Z,1473.00
2023-03-30T00:21:11.326Z,1465.00
2023-03-30T00:25:11.299Z,1461.00
2023-03-30T00:29:11.267Z,1460.00
2023-03-30T00:33:11.405Z,1443.00
2023-03-30T00:37:11.804Z,1442.00
2023-03-30T00:41:11.835Z,1431.00
2023-03-30T00:45:11.786Z,1423.00
2023-03-30T00:49:11.765Z,1429.00
2023-03-30T00:53:11.851Z,1425.00
2023-03-30T00:57:12.365Z,1419.00
2023-03-30T01:01:12.016Z,1411.00
2023-03-30T01:05:12.297Z,1408.00
2023-03-30T01:09:12.147Z,1397.00
2023-03-30T01:13:12.065Z,1392.00
2023-03-30T01:17:12.084Z,1387.00
2023-03-30T01:21:12.330Z,1381.00
2023-03-30T01:25:12.323Z,1373.00
2023-03-30T01:29:12.019Z,1366.00
2023-03-30T01:33:12.009Z,1357.00
2023-03-30T01:37:12.338Z,1354.00
2023-03-30T01:41:12.325Z,1349.00
2023-03-30T01:45:12.323Z,1340.00
2023-03-30T01:49:11.963Z,1341.00
2023-03-30T01:53:12.340Z,1340.00
2023-03-30T01:57:12.360Z,1331.00
2023-03-30T02:01:12.350Z,1333.00
2023-03-30T02:05:12.354Z,1323.00
2023-03-30T02:09:11.857Z,1317.00
2023-03-30T02:13:11.832Z,1313.00
2023-03-30T02:17:11.819Z,1309.00
2023-03-30T02:21:11.850Z,1305.00
2023-03-30T02:25:11.845Z,1300.00
2023-03-30T02:29:11.793Z,1298.00
2023-03-30T02:33:11.879Z,1301.00
2023-03-30T02:37:11.883Z,1288.00
2023-03-30T02:41:11.882Z,1279.00
2023-03-30T02:45:11.893Z,1276.00
2023-03-30T02:49:11.742Z,1278.00
2023-03-30T02:53:11.822Z,1277.00
2023-03-30T02:57:11.768Z,1263.00
2023-03-30T03:01:11.918Z,1261.00
2023-03-30T03:05:11.746Z,1255.00
2023-03-30T03:09:11.684Z,1240.00
2023-03-30T03:13:11.867Z,1234.00
2023-03-30T03:17:11.838Z,1232.00
2023-03-30T03:21:11.868Z,1232.00
2023-03-30T03:25:11.672Z,1226.00
2023-03-30T03:29:11.893Z,1227.00
2023-03-30T03:33:11.885Z,1218.00
2023-03-30T03:37:11.909Z,1215.00
2023-03-30T03:41:11.872Z,1212.00
2023-03-30T03:45:11.693Z,1215.00
2023-03-30T03:49:11.866Z,1213.00
2023-03-30T03:53:11.912Z,1215.00
2023-03-30T03:57:11.946Z,1204.00
2023-03-30T04:01:12.009Z,1200.00
2023-03-30T04:05:11.857Z,1192.00
2023-03-30T04:09:12.392Z,1191.00
2023-03-30T04:13:12.390Z,1189.00
2023-03-30T04:17:11.984Z,1188.00
2023-03-30T04:21:12.397Z,1187.00
2023-03-30T04:25:12.046Z,1184.00
2023-03-30T04:29:12.378Z,1176.00
2023-03-30T04:33:12.139Z,1169.00
2023-03-30T04:37:12.389Z,1163.00
2023-03-30T04:41:12.227Z,1161.00
2023-03-30T04:45:12.296Z,1156.00
2023-03-30T04:49:12.317Z,1148.00
2023-03-30T04:53:12.444Z,1143.00
2023-03-30T04:57:12.953Z,1137.00
2023-03-30T05:01:12.483Z,1135.00
2023-03-30T05:05:12.911Z,1136.00
2023-03-30T05:09:12.900Z,1131.00
2023-03-30T05:13:12.920Z,1128.00
2023-03-30T05:17:13.006Z,1129.00
2023-03-30T05:21:12.700Z,1129.00
2023-03-30T05:25:12.938Z,1122.00
2023-03-30T05:29:12.808Z,1119.00
2023-03-30T05:33:12.887Z,1115.00
2023-03-30T05:37:12.970Z,1105.00
2023-03-30T05:41:12.927Z,1112.00
2023-03-30T05:45:13.440Z,1104.00
2023-03-30T05:49:13.481Z,1099.00
2023-03-30T05:53:13.494Z,1096.00
2023-03-30T05:57:13.430Z,1082.00
2023-03-30T06:01:13.251Z,1072.00
2023-03-30T06:05:13.405Z,1063.00
2023-03-30T06:09:13.456Z,1060.00
2023-03-30T06:13:13.439Z,1062.00
2023-03-30T06:17:13.399Z,1059.00
2023-03-30T06:21:13.944Z,1058.00
2023-03-30T06:25:13.958Z,1061.00
2023-03-30T06:29:13.923Z,1058.00
2023-03-30T06:33:13.974Z,1050.00
2023-03-30T06:37:13.675Z,1051.00
2023-03-30T06:41:13.930Z,1049.00
2023-03-30T06:45:14.329Z,1040.00
2023-03-30T06:49:13.996Z,1034.00
2023-03-30T06:53:13.964Z,1037.00
2023-03-30T06:57:14.076Z,1024.00
2023-03-30T07:01:14.176Z,1018.00
2023-03-30T07:05:14.447Z,1024.00
2023-03-30T07:09:14.465Z,1024.00
2023-03-30T07:13:14.441Z,1022.00
2023-03-30T07:17:14.215Z,1021.00
2023-03-30T07:21:14.463Z,1021.00
2023-03-30T07:25:14.450Z,1018.00
2023-03-30T07:29:14.460Z,1017.00
2023-03-30T07:33:14.492Z,1018.00
2023-03-30T07:37:20.001Z,1016.00
2023-03-30T07:41:15.478Z,1013.00
2023-03-30T07:45:16.435Z,1013.00
2023-03-30T07:49:15.570Z,1014.00
2023-03-30T07:53:14.339Z,1199.00
2023-03-30T07:57:14.526Z,1440.00
2023-03-30T08:01:14.438Z,1541.00
2023-03-30T08:05:14.531Z,1653.00
2023-03-30T08:09:14.349Z,1740.00
2023-03-30T08:13:14.537Z,1455.00
2023-03-30T08:17:14.482Z,1319.00
2023-03-30T08:21:14.462Z,1464.00
2023-03-30T08:25:14.466Z,1129.00
2023-03-30T08:29:14.100Z,1128.00
2023-03-30T08:33:14.537Z,949.00
2023-03-30T08:37:14.494Z,993.00
2023-03-30T08:41:14.479Z,894.00
2023-03-30T08:45:13.992Z,1098.00
2023-03-30T08:49:13.913Z,1207.00
2023-03-30T08:53:14.027Z,1266.00
2023-03-30T08:57:14.073Z,1321.00
2023-03-30T09:01:14.116Z,1342.00
2023-03-30T09:05:14.144Z,1241.00
2023-03-30T09:09:14.000Z,1351.00
2023-03-30T09:13:13.970Z,1437.00
2023-03-30T09:17:14.501Z,1528.00
2023-03-30T09:21:14.039Z,1636.00
2023-03-30T09:25:13.968Z,1681.00
2023-03-30T09:29:14.012Z,1745.00
2023-03-30T09:33:13.900Z,1814.00
2023-03-30T09:37:14.028Z,1898.00
2023-03-30T09:41:13.805Z,1989.00
2023-03-30T09:45:13.823Z,2053.00
2023-03-30T09:49:13.799Z,2049.00
2023-03-30T09:53:13.713Z,1703.00
2023-03-30T09:57:13.700Z,1453.00
2023-03-30T10:01:14.066Z,1441.00
2023-03-30T10:05:13.591Z,1427.00
2023-03-30T10:09:14.028Z,1276.00
2023-03-30T10:13:14.066Z,1194.00
2023-03-30T10:17:14.046Z,1135.00
2023-03-30T10:21:13.777Z,1099.00
2023-03-30T10:25:14.090Z,933.00
2023-03-30T10:29:14.538Z,1060.00
2023-03-30T10:33:14.549Z,1077.00
2023-03-30T10:37:14.536Z,1191.00
2023-03-30T10:41:14.421Z,1200.00
2023-03-30T10:45:15.078Z,1290.00
2023-03-30T10:49:15.013Z,1284.00
2023-03-30T10:53:15.082Z,1254.00
2023-03-30T10:57:15.097Z,1065.00
2023-03-30T11:01:14.962Z,1047.00
2023-03-30T11:05:15.564Z,986.00
2023-03-30T11:09:15.563Z,938.00
2023-03-30T11:13:15.474Z,886.00
2023-03-30T11:17:16.043Z,862.00
2023-03-30T11:21:15.683Z,824.00
2023-03-30T11:25:16.045Z,794.00
2023-03-30T11:29:16.067Z,765.00
2023-03-30T11:33:15.625Z,741.00
2023-03-30T11:37:15.593Z,758.00
2023-03-30T11:41:15.476Z,763.00
2023-03-30T11:45:15.561Z,790.00
2023-03-30T11:49:15.553Z,807.00
2023-03-30T11:53:15.586Z,815.00
2023-03-30T11:57:15.609Z,819.00
2023-03-30T12:01:15.826Z,837.00
2023-03-30T12:05:16.040Z,852.00
2023-03-30T12:09:16.088Z,862.00
2023-03-30T12:13:16.093Z,868.00
2023-03-30T12:17:15.886Z,874.00
2023-03-30T12:21:16.089Z,874.00
2023-03-30T12:25:16.101Z,876.00
2023-03-30T12:33:16.094Z,862.00
2023-03-30T12:37:15.704Z,817.00
2023-03-30T12:41:16.127Z,785.00
2023-03-30T12:45:16.094Z,760.00
2023-03-30T12:49:16.097Z,724.00
2023-03-30T12:53:15.554Z,706.00
2023-03-30T12:57:15.547Z,687.00
2023-03-30T13:01:22.630Z,668.00
2023-03-30T13:05:15.623Z,675.00
2023-03-30T13:09:15.643Z,668.00
2023-03-30T13:13:15.612Z,701.00
2023-03-30T13:17:15.561Z,730.00
2023-03-30T13:21:15.627Z,741.00
2023-03-30T13:25:15.633Z,741.00
2023-03-30T13:29:15.646Z,748.00
2023-03-30T13:33:15.661Z,767.00
2023-03-30T13:37:15.149Z,778.00
2023-03-30T13:41:15.608Z,784.00
2023-03-30T13:45:15.128Z,794.00
2023-03-30T13:49:15.116Z,810.00
2023-03-30T13:53:15.146Z,824.00
2023-03-30T13:57:15.301Z,840.00
2023-03-30T14:01:15.667Z,853.00
2023-03-30T14:05:15.620Z,860.00
2023-03-30T14:09:15.639Z,870.00
2023-03-30T14:13:17.835Z,886.00
2023-03-30T14:17:15.677Z,907.00
2023-03-30T14:21:15.645Z,894.00
2023-03-30T14:25:15.682Z,889.00
2023-03-30T14:29:21.343Z,888.00
2023-03-30T14:33:16.314Z,886.00
2023-03-30T14:37:15.650Z,885.00
2023-03-30T14:41:15.642Z,877.00
2023-03-30T14:45:15.651Z,876.00
2023-03-30T14:49:16.156Z,876.00
2023-03-30T14:53:15.780Z,882.00
2023-03-30T14:57:16.169Z,877.00
2023-03-30T15:01:16.231Z,876.00
2023-03-30T15:05:16.680Z,874.00
2023-03-30T15:09:16.668Z,880.00
2023-03-30T15:13:16.589Z,879.00
2023-03-30T15:17:17.224Z,878.00
2023-03-30T15:21:16.892Z,875.00
2023-03-30T15:25:17.179Z,875.00
2023-03-30T15:29:17.656Z,873.00
2023-03-30T15:33:17.304Z,874.00
2023-03-30T15:37:17.676Z,870.00
2023-03-30T15:41:17.553Z,872.00
2023-03-30T15:45:18.179Z,869.00
2023-03-30T15:49:18.165Z,872.00
2023-03-30T15:53:18.135Z,868.00
2023-03-30T15:57:18.722Z,863.00
2023-03-30T16:01:18.594Z,863.00
2023-03-30T16:05:18.710Z,857.00
2023-03-30T16:09:18.811Z,855.00
2023-03-30T16:13:19.165Z,859.00
2023-03-30T16:17:19.219Z,859.00
2023-03-30T16:21:19.784Z,852.00
2023-03-30T16:25:21.250Z,852.00
2023-03-30T16:29:19.624Z,854.00
2023-03-30T16:33:19.715Z,852.00
2023-03-30T16:37:19.534Z,852.00
2023-03-30T16:41:19.681Z,849.00
2023-03-30T16:45:19.706Z,848.00
2023-03-30T16:49:19.424Z,850.00
2023-03-30T16:53:19.686Z,848.00
2023-03-30T16:57:19.733Z,848.00
2023-03-30T17:01:19.571Z,841.00
2023-03-30T17:05:19.779Z,841.00
2023-03-30T17:09:19.276Z,838.00
2023-03-30T17:13:19.440Z,837.00
2023-03-30T17:17:19.707Z,840.00
2023-03-30T17:21:19.845Z,837.00
2023-03-30T17:25:20.194Z,838.00
2023-03-30T17:29:20.243Z,833.00
2023-03-30T17:33:20.475Z,832.00
2023-03-30T17:37:20.689Z,828.00
2023-03-30T17:41:21.229Z,831.00
2023-03-30T17:45:21.193Z,833.00
2023-03-30T17:49:21.018Z,825.00
2023-03-30T17:53:21.237Z,828.00
2023-03-30T17:57:20.989Z,826.00
2023-03-30T18:01:20.984Z,820.00
2023-03-30T18:05:20.898Z,818.00
2023-03-30T18:09:21.219Z,817.00
2023-03-30T18:13:20.843Z,817.00
2023-03-30T18:17:21.251Z,877.00
2023-03-30T18:21:21.210Z,873.00
2023-03-30T18:25:31.638Z,865.00
2023-03-30T18:29:22.235Z,1064.00
2023-03-30T18:33:20.784Z,1388.00
2023-03-30T18:37:20.747Z,988.00
2023-03-30T18:41:21.216Z,1004.00
2023-03-30T18:45:21.034Z,1044.00
2023-03-30T18:49:21.254Z,1095.00
2023-03-30T18:53:21.244Z,1110.00
2023-03-30T18:57:21.809Z,1171.00
2023-03-30T19:01:21.381Z,1210.00
2023-03-30T19:05:21.448Z,1232.00
2023-03-30T19:09:29.748Z,1247.00
2023-03-30T19:13:22.457Z,1250.00
2023-03-30T19:17:21.735Z,1264.00
2023-03-30T19:21:21.736Z,1265.00
2023-03-30T19:25:21.365Z,1260.00
2023-03-30T19:29:21.756Z,1249.00
2023-03-30T19:33:21.799Z,1238.00
2023-03-30T19:37:21.632Z,1226.00
2023-03-30T19:41:21.781Z,1222.00
2023-03-30T19:45:21.835Z,1220.00
2023-03-30T19:49:22.254Z,1214.00
2023-03-30T19:53:22.274Z,1212.00
2023-03-30T19:57:22.802Z,1210.00
2023-03-30T20:01:22.454Z,1208.00
2023-03-30T20:05:22.776Z,1203.00
2023-03-30T20:09:22.727Z,1201.00
2023-03-30T20:13:23.273Z,1201.00
2023-03-30T20:17:23.281Z,1198.00
2023-03-30T20:21:23.255Z,1199.00
2023-03-30T20:25:23.794Z,1203.00
2023-03-30T20:29:23.782Z,1202.00
2023-03-30T20:33:23.878Z,1193.00
2023-03-30T20:37:24.283Z,1189.00
2023-03-30T20:41:24.240Z,1188.00
2023-03-30T20:45:24.819Z,1184.00
2023-03-30T20:49:24.780Z,1188.00
2023-03-30T20:53:24.968Z,1178.00
2023-03-30T20:57:25.310Z,1174.00
2023-03-30T21:01:25.620Z,1176.00
2023-03-30T21:05:25.778Z,1175.00
2023-03-30T21:09:25.281Z,1168.00
2023-03-30T21:13:25.310Z,1167.00
2023-03-30T21:17:25.308Z,1165.00
2023-03-30T21:21:25.148Z,1165.00
2023-03-30T21:25:25.299Z,1161.00
2023-03-30T21:29:25.301Z,1155.00
2023-03-30T21:33:25.063Z,1149.00
2023-03-30T21:37:25.321Z,1150.00
2023-03-30T21:41:25.172Z,1146.00
2023-03-30T21:45:25.324Z,1145.00
2023-03-30T21:49:25.118Z,1141.00
2023-03-30T21:53:25.283Z,1138.00
2023-03-30T21:57:25.059Z,1135.00
2023-03-30T22:01:25.021Z,1135.00
2023-03-30T22:05:25.307Z,1132.00
2023-03-30T22:09:24.912Z,1131.00
2023-03-30T22:13:25.303Z,1131.00
2023-03-30T22:17:25.020Z,1135.00
2023-03-30T22:21:25.329Z,1131.00
2023-03-30T22:25:25.307Z,1130.00
2023-03-30T22:29:25.312Z,1133.00
2023-03-30T22:33:24.842Z,1124.00
2023-03-30T22:37:24.801Z,1120.00
2023-03-30T22:41:24.872Z,1115.00
2023-03-30T22:45:24.834Z,1116.00
2023-03-30T22:49:24.828Z,1114.00
2023-03-30T22:53:24.833Z,1110.00
2023-03-30T22:57:25.142Z,1105.00
2023-03-30T23:01:25.163Z,1106.00
2023-03-30T23:05:25.337Z,1110.00
2023-03-30T23:09:25.488Z,1106.00
2023-03-30T23:13:25.905Z,1105.00
2023-03-30T23:17:25.928Z,1094.00
2023-03-30T23:21:26.366Z,1093.00
2023-03-30T23:25:26.325Z,1090.00
2023-03-30T23:29:26.362Z,1087.00
2023-03-30T23:33:26.464Z,1083.00
2023-03-30T23:37:26.850Z,1081.00
2023-03-30T23:41:26.838Z,1081.00
2023-03-30T23:45:26.832Z,1076.00
2023-03-30T23:49:26.846Z,1076.00
2023-03-30T23:53:27.000Z,1077.00
2023-03-30T23:57:27.484Z,1074.00
